West Navigator — 3ERR2 — position and weather

sailwx.info

Track history (hours):
 
Tides and Currents Weather Stations Pressure Air Temp Water Temp Dewpoint Dewpoint Depression Visibility Wind Speed Wind Dir Waves Ship Positions

West Navigator

Last reported at 2016-Feb-13 15:00 UTC. Time now 2016-Feb-13 19:21 UTC.
Position N 60°42' E 005°06'.

Length 253 m; draft 15 m.

Type: Other ship. MMSI: 370144000.

Wind from 320 at 4 knots

Waves 0.5 meters (2 feet), 19 second period

Barometer 996.9 mb
Air temperature 0.1 ° C
Dewpoint -8.7 ° C

Date/timePositionNaut miles runAvg speedWind from/ knotsBaromVisibWave heightAir tempDewpointWater temp
2016-Feb-13 15:00N 60°42' E 005°06'0 0.0 320 / 4996.9 0.5 0.1-8.7
2016-Feb-13 12:00N 60°42' E 005°06'0 0.0 010 / 3997.4 1.5 0.2-10.9
2016-Feb-13 09:00N 60°42' E 005°06'0 0.0 260 / 1997.9 1.5-2.3-6.4
2016-Feb-13 06:00N 60°42' E 005°06'0 0.0 320 / 3998.3 2.0-4.2-6.3
2016-Feb-13 03:00N 60°42' E 005°06'0 0.0 220 / 2999.1 1.5-3.1-6.6
2016-Feb-13 00:00N 60°42' E 005°06'0 0.0 240 / 31000.4 1.0-2.4-5.5
2016-Feb-12 21:00N 60°42' E 005°06'0 0.0 210 / 41001.7 1.0-2.0-4.6
2016-Feb-12 18:00N 60°42' E 005°06'0 0.0 010 1003.0 2.0-0.1-4.9
2016-Feb-12 15:00N 60°42' E 005°06'0 0.0 190 / 41004.1 1.0 2.8-6.0
2016-Feb-12 12:00N 60°42' E 005°06'0 0.0 210 / 51005.8 2.5 2.9-8.7
2016-Feb-12 09:00N 60°42' E 005°06'0 0.0 230 / 41007.2 1.5 0.7-7.3
2016-Feb-12 06:00N 60°42' E 005°06'0 0.0 240 / 21007.8 1.5-2.8-6.8
2016-Feb-12 03:00N 60°42' E 005°06'0 0.0 220 / 41007.6 1.0-1.7-6.7
2016-Feb-12 00:00N 60°42' E 005°06'0 0.0 230 / 71007.3 1.0-0.9-7.4
2016-Feb-11 18:00N 60°42' E 005°06'0 0.0 230 / 111005.8 1.0 1.3-9.2
2016-Feb-11 15:00N 60°42' E 005°06'0 0.0 230 / 141003.5 1.5 3.9-10.0
2016-Feb-11 12:00N 60°42' E 005°06'0 0.0 250 / 111001.5 1.0 4.4-8.7
2016-Feb-11 09:00N 60°42' E 005°06'0 0.0 240 / 10999.8 2.0 4.4-8.5
2016-Feb-11 06:00N 60°42' E 005°06'0 0.0 230 / 13997.4 1.5 2.5-6.2
2016-Feb-11 03:00N 60°42' E 005°06'0 0.0 230 / 14995.5 0.5 2.5-3.0
2016-Feb-11 00:00N 60°42' E 005°06'0 0.0 220 / 7993.7 2.8-1.3
2016-Feb-10 21:00N 60°42' E 005°06'0 0.0 230 / 9992.1 2.0 3.3-0.3
2016-Feb-10 18:00N 60°42' E 005°06'0 0.0 200 / 5990.3 1.5 3.5 0.7
2016-Feb-10 15:00N 60°42' E 005°06'0 0.0 220 / 7987.6 1.5 5.5 1.7
2016-Feb-10 12:00N 60°42' E 005°06'0 0.0 220 / 3985.7 2.5 7.3 2.6
2016-Feb-10 09:00N 60°42' E 005°06'0 0.0 250 / 3984.5 3.5 3.2 3.0
2016-Feb-10 06:00N 60°42' E 005°06'0 0.0 220 / 4982.7 2.0 2.9 2.9
2016-Feb-10 03:00N 60°42' E 005°06'0 0.0 220 / 3981.7 1.5 3.2 3.2
2016-Feb-10 00:00N 60°42' E 005°06'0 0.0 210 / 3980.4 1.0 3.3 3.0
2016-Feb-09 21:00N 60°42' E 005°06'0 0.0 300 / 6978.7 1.0 3.2 2.6
2016-Feb-09 18:00N 60°42' E 005°06'0 0.0 330 / 9976.7 0.5 3.8 2.6
2016-Feb-09 15:00N 60°42' E 005°06'0 0.0 320 / 8974.4 1.0 4.0 3.1
2016-Feb-09 12:00N 60°42' E 005°06'0 0.0 340 / 12973.0 1.5 3.7 3.2
2016-Feb-09 09:00N 60°42' E 005°06'0 0.0 320 / 11971.2 2.0 4.7 3.2
2016-Feb-09 06:00N 60°42' E 005°06'0 0.0 320 / 11970.2 0.5 4.5 3.6
2016-Feb-09 03:00N 60°42' E 005°06'0 0.0 330 / 11969.7 0.5 4.8 3.2
2016-Feb-09 00:00N 60°42' E 005°06'0 0.0 340 / 12969.5 0.5 5.0 3.0
2016-Feb-08 21:00N 60°42' E 005°06'0 0.0 320 / 11969.0 0.5 5.0 3.4
2016-Feb-08 18:00N 60°42' E 005°06'0 0.0 330 / 13968.6 2.0 4.1 3.0
2016-Feb-08 15:00N 60°42' E 005°06'0 0.0 360 / 12967.7 2.0 5.6 4.5
2016-Feb-08 12:00N 60°42' E 005°06'0 0.0 340 / 14966.8 2.0 5.2 3.4
2016-Feb-08 09:00N 60°42' E 005°06'0 0.0 310 / 10966.6 1.5 5.4 2.6
2016-Feb-08 06:00N 60°42' E 005°06'0 0.0 330 / 14968.8 1.5 4.8 2.9
2016-Feb-08 03:00N 60°42' E 005°06'0 0.0 030 / 11971.7 0.5 3.5 3.0
2016-Feb-08 00:00N 60°42' E 005°06'0 0.0 020 / 33969.8 0.5 4.3 4.2
2016-Feb-07 21:00N 60°42' E 005°06'0 0.0 330 / 20971.6 0.5 4.5 2.1
2016-Feb-07 18:00N 60°42' E 005°06'0 0.0 350 / 16976.5 1.0 5.1 3.3
2016-Feb-07 15:00N 60°42' E 005°06'0 0.0 020 / 19978.1 0.5 6.6 3.5
2016-Feb-07 12:00N 60°42' E 005°06'0 0.0 020 / 16978.8 0.5 5.9 5.0
2016-Feb-07 09:00N 60°42' E 005°06'0 0.0 330 / 13978.5 1.5 6.3 4.9
2016-Feb-07 06:00N 60°42' E 005°06'0 0.0 320 / 15979.9 6.3 6.1
2016-Feb-07 03:00N 60°42' E 005°06'0 0.0 320 / 16981.1 0.5 5.5 4.9
2016-Feb-07 00:00N 60°42' E 005°06'0 0.0 320 / 12982.8 4.8 3.7
2016-Feb-06 21:00N 60°42' E 005°06'0 0.0 270 / 7987.4 3.0 1.5
2016-Feb-06 18:00N 60°42' E 005°06'0 0.0 320 / 9992.1 0.5 5.0 1.8
2016-Feb-06 15:00N 60°42' E 005°06'0 0.0 340 / 12994.8 0.5 4.8 2.4
2016-Feb-06 12:00N 60°42' E 005°06'0 0.0 320 / 10996.2 1.5 4.7 3.2
2016-Feb-06 09:00N 60°42' E 005°06'0 0.0 020 / 3 1.5 4.2 3.4
2016-Feb-06 06:00N 60°42' E 005°06'0 0.0 150 / 7991.4 0.5 4.1 3.5
2016-Feb-06 03:00N 60°42' E 005°06'0 0.0 020 / 20990.5 0.5 7.0 6.2
2016-Feb-06 00:00N 60°42' E 005°06'0 0.0 010 / 20993.9 0.5 6.4 6.3
2016-Feb-05 21:00N 60°42' E 005°06'0 0.0 360 / 22996.7 0.5 6.2 5.9
2016-Feb-05 18:00N 60°42' E 005°06'0 0.0 010 / 21999.1 0.5 6.1 5.6
2016-Feb-05 15:00N 60°42' E 005°06'0 0.0 320 / 141001.5 0.5 4.0 3.8
2016-Feb-05 12:10N 60°42' E 005°06'0 0.0 330 / 141004.4 1.0 2.9 2.3
2016-Feb-05 09:00N 60°42' E 005°06'0 0.0 350 / 181007.3 0.5 1.8-0.2
2016-Feb-05 06:00N 60°42' E 005°06'0 0.0 320 / 131009.7 1.0 1.2 0.5
2016-Feb-05 00:00N 60°42' E 005°06'0 0.0 320 / 51014.6 0.5 0.8 0.2
2016-Feb-04 21:00N 60°42' E 005°06'0 0.0 320 / 51015.0 0.5 0.8 0.5
2016-Feb-04 18:10N 60°42' E 005°06'0 0.0 320 / 61014.8 1.0 0.9 0.6
2016-Feb-04 15:00N 60°42' E 005°06'0 0.0 320 / 71013.6 1.5 0.9 0.5
2016-Feb-04 12:00N 60°42' E 005°06'0 0.0 320 / 71012.6 1.5 1.3-0.0
2016-Feb-04 09:00N 60°42' E 005°06'0 0.0 010 / 51011.1 1.5 0.1-0.2
2016-Feb-04 06:00N 60°42' E 005°06'0 0.0 360 / 31008.9 2.0 0.4-0.7
2016-Feb-04 03:00N 60°42' E 005°06'0 0.0 250 / 11008.2 1.5 1.0-0.3
2016-Feb-04 00:00N 60°42' E 005°06'0 0.0 180 / 41007.6 0.5 1.6-0.2
2016-Feb-03 21:00N 60°42' E 005°06'0 0.0 160 / 71006.0 1.5 1.3 0.7
2016-Feb-03 18:10N 60°42' E 005°06'0 0.0 190 / 51004.2 0.5 2.4 0.5
2016-Feb-03 15:00N 60°42' E 005°06'   200 / 81002.5 1.5 1.5 0.8
Track history (hours):
 
Tides and Currents Weather Stations Pressure Air Temp Water Temp Dewpoint Dewpoint Depression Visibility Wind Speed Wind Dir Waves Ship Positions

West Navigator

Last reported at 2016-Feb-13 15:00 UTC. Time now 2016-Feb-13 19:21 UTC.
Position N 60°42' E 005°06'.

Length 253 m; draft 15 m.

Type: Other ship. MMSI: 370144000.

Wind from 320 at 4 knots

Waves 0.5 meters (2 feet), 19 second period

Barometer 996.9 mb
Air temperature 0.1 ° C
Dewpoint -8.7 ° C

Date/timePositionNaut miles runAvg speedWind from/ knotsBaromVisibWave heightAir tempDewpointWater temp
2016-Feb-13 15:00N 60°42' E 005°06'0 0.0 320 / 4996.9 0.5 0.1-8.7
2016-Feb-13 12:00N 60°42' E 005°06'0 0.0 010 / 3997.4 1.5 0.2-10.9
2016-Feb-13 09:00N 60°42' E 005°06'0 0.0 260 / 1997.9 1.5-2.3-6.4
2016-Feb-13 06:00N 60°42' E 005°06'0 0.0 320 / 3998.3 2.0-4.2-6.3
2016-Feb-13 03:00N 60°42' E 005°06'0 0.0 220 / 2999.1 1.5-3.1-6.6
2016-Feb-13 00:00N 60°42' E 005°06'0 0.0 240 / 31000.4 1.0-2.4-5.5
2016-Feb-12 21:00N 60°42' E 005°06'0 0.0 210 / 41001.7 1.0-2.0-4.6
2016-Feb-12 18:00N 60°42' E 005°06'0 0.0 010 1003.0 2.0-0.1-4.9
2016-Feb-12 15:00N 60°42' E 005°06'0 0.0 190 / 41004.1 1.0 2.8-6.0
2016-Feb-12 12:00N 60°42' E 005°06'0 0.0 210 / 51005.8 2.5 2.9-8.7
2016-Feb-12 09:00N 60°42' E 005°06'0 0.0 230 / 41007.2 1.5 0.7-7.3
2016-Feb-12 06:00N 60°42' E 005°06'0 0.0 240 / 21007.8 1.5-2.8-6.8
2016-Feb-12 03:00N 60°42' E 005°06'0 0.0 220 / 41007.6 1.0-1.7-6.7
2016-Feb-12 00:00N 60°42' E 005°06'0 0.0 230 / 71007.3 1.0-0.9-7.4
2016-Feb-11 18:00N 60°42' E 005°06'0 0.0 230 / 111005.8 1.0 1.3-9.2
2016-Feb-11 15:00N 60°42' E 005°06'0 0.0 230 / 141003.5 1.5 3.9-10.0
2016-Feb-11 12:00N 60°42' E 005°06'0 0.0 250 / 111001.5 1.0 4.4-8.7
2016-Feb-11 09:00N 60°42' E 005°06'0 0.0 240 / 10999.8 2.0 4.4-8.5
2016-Feb-11 06:00N 60°42' E 005°06'0 0.0 230 / 13997.4 1.5 2.5-6.2
2016-Feb-11 03:00N 60°42' E 005°06'0 0.0 230 / 14995.5 0.5 2.5-3.0
2016-Feb-11 00:00N 60°42' E 005°06'0 0.0 220 / 7993.7 2.8-1.3
2016-Feb-10 21:00N 60°42' E 005°06'0 0.0 230 / 9992.1 2.0 3.3-0.3
2016-Feb-10 18:00N 60°42' E 005°06'0 0.0 200 / 5990.3 1.5 3.5 0.7
2016-Feb-10 15:00N 60°42' E 005°06'0 0.0 220 / 7987.6 1.5 5.5 1.7
2016-Feb-10 12:00N 60°42' E 005°06'0 0.0 220 / 3985.7 2.5 7.3 2.6
2016-Feb-10 09:00N 60°42' E 005°06'0 0.0 250 / 3984.5 3.5 3.2 3.0
2016-Feb-10 06:00N 60°42' E 005°06'0 0.0 220 / 4982.7 2.0 2.9 2.9
2016-Feb-10 03:00N 60°42' E 005°06'0 0.0 220 / 3981.7 1.5 3.2 3.2
2016-Feb-10 00:00N 60°42' E 005°06'0 0.0 210 / 3980.4 1.0 3.3 3.0
2016-Feb-09 21:00N 60°42' E 005°06'0 0.0 300 / 6978.7 1.0 3.2 2.6
2016-Feb-09 18:00N 60°42' E 005°06'0 0.0 330 / 9976.7 0.5 3.8 2.6
2016-Feb-09 15:00N 60°42' E 005°06'0 0.0 320 / 8974.4 1.0 4.0 3.1
2016-Feb-09 12:00N 60°42' E 005°06'0 0.0 340 / 12973.0 1.5 3.7 3.2
2016-Feb-09 09:00N 60°42' E 005°06'0 0.0 320 / 11971.2 2.0 4.7 3.2
2016-Feb-09 06:00N 60°42' E 005°06'0 0.0 320 / 11970.2 0.5 4.5 3.6
2016-Feb-09 03:00N 60°42' E 005°06'0 0.0 330 / 11969.7 0.5 4.8 3.2
2016-Feb-09 00:00N 60°42' E 005°06'0 0.0 340 / 12969.5 0.5 5.0 3.0
2016-Feb-08 21:00N 60°42' E 005°06'0 0.0 320 / 11969.0 0.5 5.0 3.4
2016-Feb-08 18:00N 60°42' E 005°06'0 0.0 330 / 13968.6 2.0 4.1 3.0
2016-Feb-08 15:00N 60°42' E 005°06'0 0.0 360 / 12967.7 2.0 5.6 4.5
2016-Feb-08 12:00N 60°42' E 005°06'0 0.0 340 / 14966.8 2.0 5.2 3.4
2016-Feb-08 09:00N 60°42' E 005°06'0 0.0 310 / 10966.6 1.5 5.4 2.6
2016-Feb-08 06:00N 60°42' E 005°06'0 0.0 330 / 14968.8 1.5 4.8 2.9
2016-Feb-08 03:00N 60°42' E 005°06'0 0.0 030 / 11971.7 0.5 3.5 3.0
2016-Feb-08 00:00N 60°42' E 005°06'0 0.0 020 / 33969.8 0.5 4.3 4.2
2016-Feb-07 21:00N 60°42' E 005°06'0 0.0 330 / 20971.6 0.5 4.5 2.1
2016-Feb-07 18:00N 60°42' E 005°06'0 0.0 350 / 16976.5 1.0 5.1 3.3
2016-Feb-07 15:00N 60°42' E 005°06'0 0.0 020 / 19978.1 0.5 6.6 3.5
2016-Feb-07 12:00N 60°42' E 005°06'0 0.0 020 / 16978.8 0.5 5.9 5.0
2016-Feb-07 09:00N 60°42' E 005°06'0 0.0 330 / 13978.5 1.5 6.3 4.9
2016-Feb-07 06:00N 60°42' E 005°06'0 0.0 320 / 15979.9 6.3 6.1
2016-Feb-07 03:00N 60°42' E 005°06'0 0.0 320 / 16981.1 0.5 5.5 4.9
2016-Feb-07 00:00N 60°42' E 005°06'0 0.0 320 / 12982.8 4.8 3.7
2016-Feb-06 21:00N 60°42' E 005°06'0 0.0 270 / 7987.4 3.0 1.5
2016-Feb-06 18:00N 60°42' E 005°06'0 0.0 320 / 9992.1 0.5 5.0 1.8
2016-Feb-06 15:00N 60°42' E 005°06'0 0.0 340 / 12994.8 0.5 4.8 2.4
2016-Feb-06 12:00N 60°42' E 005°06'0 0.0 320 / 10996.2 1.5 4.7 3.2
2016-Feb-06 09:00N 60°42' E 005°06'0 0.0 020 / 3 1.5 4.2 3.4
2016-Feb-06 06:00N 60°42' E 005°06'0 0.0 150 / 7991.4 0.5 4.1 3.5
2016-Feb-06 03:00N 60°42' E 005°06'0 0.0 020 / 20990.5 0.5 7.0 6.2
2016-Feb-06 00:00N 60°42' E 005°06'0 0.0 010 / 20993.9 0.5 6.4 6.3
2016-Feb-05 21:00N 60°42' E 005°06'0 0.0 360 / 22996.7 0.5 6.2 5.9
2016-Feb-05 18:00N 60°42' E 005°06'0 0.0 010 / 21999.1 0.5 6.1 5.6
2016-Feb-05 15:00N 60°42' E 005°06'0 0.0 320 / 141001.5 0.5 4.0 3.8
2016-Feb-05 12:10N 60°42' E 005°06'0 0.0 330 / 141004.4 1.0 2.9 2.3
2016-Feb-05 09:00N 60°42' E 005°06'0 0.0 350 / 181007.3 0.5 1.8-0.2
2016-Feb-05 06:00N 60°42' E 005°06'0 0.0 320 / 131009.7 1.0 1.2 0.5
2016-Feb-05 00:00N 60°42' E 005°06'0 0.0 320 / 51014.6 0.5 0.8 0.2
2016-Feb-04 21:00N 60°42' E 005°06'0 0.0 320 / 51015.0 0.5 0.8 0.5
2016-Feb-04 18:10N 60°42' E 005°06'0 0.0 320 / 61014.8 1.0 0.9 0.6
2016-Feb-04 15:00N 60°42' E 005°06'0 0.0 320 / 71013.6 1.5 0.9 0.5
2016-Feb-04 12:00N 60°42' E 005°06'0 0.0 320 / 71012.6 1.5 1.3-0.0
2016-Feb-04 09:00N 60°42' E 005°06'0 0.0 010 / 51011.1 1.5 0.1-0.2
2016-Feb-04 06:00N 60°42' E 005°06'0 0.0 360 / 31008.9 2.0 0.4-0.7
2016-Feb-04 03:00N 60°42' E 005°06'0 0.0 250 / 11008.2 1.5 1.0-0.3
2016-Feb-04 00:00N 60°42' E 005°06'0 0.0 180 / 41007.6 0.5 1.6-0.2
2016-Feb-03 21:00N 60°42' E 005°06'0 0.0 160 / 71006.0 1.5 1.3 0.7
2016-Feb-03 18:10N 60°42' E 005°06'0 0.0 190 / 51004.2 0.5 2.4 0.5
2016-Feb-03 15:00N 60°42' E 005°06'   200 / 81002.5 1.5 1.5 0.8

Dump ship's entire track history